KSUS/SUS METAR and TAF weather

Enter ICAO airport designator
Station Type Date Time Source
KSUS METAR 2020/02/25 10:54 UTC NOAA

KSUS 251054Z AUTO 34006KT 4SM -RA BR OVC007 04/03 A2977 RMK AO2 CIG 006V010 SLP086 P0003 T00440033


Station Type Date Time Source
KSUS Decoded METAR 2020/02/25 10:54 UTC NOAA

SPIRIT OF ST. LOUIS AIRPORT , MO, United States (KSUS) 38-39N 090-39W 141M
Feb 25, 2020 - 05:54 AM EST / 2020.02.25 1054 UTC
Wind: from the NNW (340 degrees) at 7 MPH (6 KT):0
Visibility: 4 mile(s):0
Sky conditions: overcast
Weather: light rain; mist
Precipitation last hour: 0.03 inches
Temperature: 39.9 F (4.4 C)
Dew Point: 37.9 F (3.3 C)
Relative Humidity: 92%
Pressure (altimeter): 29.77 in. Hg (1008 hPa)
ob: KSUS 251054Z AUTO 34006KT 4SM -RA BR OVC007 04/03 A2977 RMK AO2 CIG 006V010 SLP086 P0003 T00440033
cycle: 11

Station Type Date Time Source
KSUS TAF 2020/02/25 12:33 UTC NOAA

TAF KSUS 251131Z 2512/2612 35009KT 3SM -RA BR OVC006
FM251500 35009KT P6SM OVC009
FM252200 35009KT 2SM -RA OVC005
FM260300 34011KT 2SM -SN OVC006
FM261000 34013KT 2SM -SN OVC006

Example: see airport list